Time;durP1;ratioP1;P1;durP2;ratioP2;P2;SDS_P1;SDS_P2;PMS_P1;PMS_P2;Temp;Humidity;BMP_temperature;BMP_pressure;BME280_temperature;BME280_humidity;BME280_pressure;Samples;Min_cycle;Max_cycle;Signal;HPM_P1;HPM_P2
2021/11/19 00:00:50;;;;;;;17.48;8.10;;;11.70;97.20;;;;;;4991503;28;20109;-75
2021/11/19 00:03:16;;;;;;;21.55;8.23;;;11.80;97.30;;;;;;4991630;28;20025;-75
2021/11/19 00:05:43;;;;;;;16.85;8.20;;;11.80;97.20;;;;;;4992874;28;20390;-75
2021/11/19 00:08:09;;;;;;;19.17;7.53;;;11.80;97.20;;;;;;4992036;28;20038;-74
2021/11/19 00:10:36;;;;;;;17.70;8.65;;;11.70;97.20;;;;;;4992701;28;20022;-74
2021/11/19 00:13:03;;;;;;;21.10;9.73;;;11.80;97.20;;;;;;4992304;28;20025;-74
2021/11/19 00:15:29;;;;;;;22.02;11.15;;;11.70;97.20;;;;;;4992752;28;20057;-73
2021/11/19 00:17:55;;;;;;;18.85;10.57;;;11.80;97.30;;;;;;4992310;28;20106;-74
2021/11/19 00:20:28;;;;;;;23.35;10.75;;;11.70;97.30;;;;;;5007858;28;20065;-75
2021/11/19 00:22:58;;;;;;;21.40;9.88;;;11.80;97.30;;;;;;4991010;28;20022;-76
2021/11/19 00:25:25;;;;;;;19.48;8.07;;;11.70;97.30;;;;;;4992881;28;20459;-74
2021/11/19 00:27:50;;;;;;;21.13;8.77;;;11.80;97.30;;;;;;4992104;28;20469;-74
2021/11/19 00:30:17;;;;;;;18.55;7.22;;;11.80;97.30;;;;;;4992326;28;20036;-74
2021/11/19 00:32:44;;;;;;;16.67;9.00;;;11.80;97.30;;;;;;4991101;28;20029;-74
2021/11/19 00:35:11;;;;;;;20.65;8.85;;;11.70;97.30;;;;;;4992214;28;20030;-74
2021/11/19 00:37:37;;;;;;;16.88;8.27;;;11.80;97.30;;;;;;4992596;28;20027;-76
2021/11/19 00:40:11;;;;;;;16.17;7.70;;;11.70;97.30;;;;;;4992130;28;20533;-74
2021/11/19 00:42:37;;;;;;;20.83;9.40;;;11.80;97.40;;;;;;4992448;28;20019;-76
2021/11/19 00:45:04;;;;;;;19.02;8.68;;;11.70;97.30;;;;;;4992059;28;20083;-75
2021/11/19 00:47:29;;;;;;;15.13;8.13;;;11.80;97.40;;;;;;4992098;28;20030;-75
2021/11/19 00:49:59;;;;;;;24.85;8.23;;;11.70;97.30;;;;;;4992026;28;20048;-74
2021/11/19 00:52:26;;;;;;;21.23;8.48;;;11.80;97.40;;;;;;4991073;28;20018;-74
2021/11/19 00:54:53;;;;;;;19.90;8.95;;;11.80;97.40;;;;;;4993287;28;20026;-74
2021/11/19 00:57:20;;;;;;;17.85;8.02;;;11.80;97.40;;;;;;4995755;28;20023;-75
2021/11/19 00:59:47;;;;;;;16.15;6.40;;;11.80;97.30;;;;;;4994748;28;20059;-75
2021/11/19 01:02:19;;;;;;;18.42;8.18;;;11.80;97.30;;;;;;4995465;28;20023;-74
2021/11/19 01:04:45;;;;;;;13.20;7.28;;;11.80;97.30;;;;;;4995880;28;20047;-76
2021/11/19 01:07:14;;;;;;;16.98;7.55;;;11.80;97.30;;;;;;4995214;28;20037;-75
2021/11/19 01:09:43;;;;;;;18.02;8.40;;;11.80;97.30;;;;;;4995859;28;20034;-75
2021/11/19 01:12:14;;;;;;;18.70;7.93;;;11.80;97.30;;;;;;4995291;28;20044;-75
2021/11/19 01:14:45;;;;;;;15.60;7.60;;;11.80;97.30;;;;;;4994427;28;20029;-75
2021/11/19 01:17:16;;;;;;;15.50;8.65;;;11.90;97.30;;;;;;4995117;28;20109;-75
2021/11/19 01:19:56;;;;;;;21.55;8.60;;;11.90;97.30;;;;;;4995866;28;20080;-74
2021/11/19 01:22:25;;;;;;;17.60;8.15;;;11.90;97.30;;;;;;4995779;28;20027;-74
2021/11/19 01:24:52;;;;;;;19.42;8.63;;;11.90;97.30;;;;;;4994049;28;20493;-75
2021/11/19 01:27:19;;;;;;;19.38;8.00;;;11.90;97.30;;;;;;4995560;28;20068;-75
2021/11/19 01:29:47;;;;;;;22.13;10.32;;;11.90;97.30;;;;;;4995508;28;20085;-74
2021/11/19 01:32:15;;;;;;;16.90;7.15;;;11.90;97.40;;;;;;4993563;28;20130;-74
2021/11/19 01:34:41;;;;;;;18.90;8.02;;;11.80;97.40;;;;;;4994013;28;20026;-74
2021/11/19 01:37:08;;;;;;;18.92;8.77;;;11.90;97.40;;;;;;4994462;28;20371;-75
2021/11/19 01:39:35;;;;;;;15.85;8.48;;;11.90;97.40;;;;;;4995179;28;20540;-75
2021/11/19 01:42:12;;;;;;;17.77;9.27;;;11.90;97.40;;;;;;4994980;28;20018;-75
2021/11/19 01:44:53;;;;;;;24.98;9.52;;;11.90;97.40;;;;;;4993911;28;20061;-75
2021/11/19 01:47:20;;;;;;;16.00;8.45;;;11.90;97.40;;;;;;4993713;28;20030;-75
2021/11/19 01:49:47;;;;;;;16.58;7.82;;;11.90;97.40;;;;;;4994952;28;20176;-76
2021/11/19 01:52:17;;;;;;;16.70;7.57;;;11.90;97.40;;;;;;4994525;28;20521;-75
2021/11/19 01:55:15;;;;;;;23.60;9.20;;;11.90;97.50;;;;;;4993817;28;20028;-75
2021/11/19 01:57:46;;;;;;;19.42;9.45;;;11.90;97.50;;;;;;4992811;28;20045;-75
2021/11/19 02:00:29;;;;;;;21.33;10.13;;;11.90;97.50;;;;;;4994744;28;20035;-75
2021/11/19 02:02:58;;;;;;;21.02;10.13;;;11.90;97.50;;;;;;4994567;28;20031;-75
2021/11/19 02:05:35;;;;;;;21.02;9.20;;;11.90;97.50;;;;;;4994707;28;20188;-75
2021/11/19 02:08:16;;;;;;;22.92;9.55;;;11.90;97.60;;;;;;4993637;28;20135;-76
2021/11/19 02:10:59;;;;;;;26.17;10.67;;;11.90;97.60;;;;;;4993377;28;20029;-76
2021/11/19 02:13:31;;;;;;;25.77;10.60;;;11.90;97.60;;;;;;4994434;28;20042;-75
2021/11/19 02:16:05;;;;;;;23.38;10.95;;;11.90;97.70;;;;;;4993706;28;20026;-75
2021/11/19 02:19:00;;;;;;;20.38;10.15;;;11.90;97.70;;;;;;4993122;28;20234;-76
2021/11/19 02:21:45;;;;;;;20.92;9.52;;;11.90;97.70;;;;;;4994722;28;20034;-75
2021/11/19 02:24:19;;;;;;;19.45;10.18;;;11.90;97.60;;;;;;4993919;28;20559;-75
2021/11/19 02:26:55;;;;;;;26.63;12.27;;;11.90;97.60;;;;;;4994319;28;20026;-75
2021/11/19 02:29:21;;;;;;;22.10;9.68;;;11.90;97.60;;;;;;4993707;28;20113;-75
2021/11/19 02:31:53;;;;;;;24.83;10.35;;;11.90;97.70;;;;;;4994254;28;20071;-75
2021/11/19 02:34:20;;;;;;;27.65;11.93;;;11.90;97.70;;;;;;4993299;28;20027;-75
2021/11/19 02:37:02;;;;;;;19.67;8.65;;;11.90;97.70;;;;;;4992432;28;20141;-75
2021/11/19 02:39:38;;;;;;;25.95;11.27;;;11.90;97.70;;;;;;4993852;28;20118;-75
2021/11/19 02:42:21;;;;;;;27.88;11.63;;;11.90;97.70;;;;;;4992255;28;20423;-75
2021/11/19 02:44:49;;;;;;;18.88;10.23;;;11.90;97.70;;;;;;4993795;28;20462;-75
2021/11/19 02:47:20;;;;;;;21.73;10.38;;;12.00;97.70;;;;;;4992133;28;20060;-75
2021/11/19 02:49:46;;;;;;;19.75;9.95;;;12.00;97.70;;;;;;4994165;28;20507;-74
2021/11/19 02:52:27;;;;;;;23.00;10.75;;;12.00;97.70;;;;;;4993367;28;20077;-75
2021/11/19 02:54:54;;;;;;;23.02;10.60;;;12.00;97.70;;;;;;4993807;28;20497;-75
2021/11/19 02:57:21;;;;;;;25.83;11.90;;;12.00;97.70;;;;;;4993302;28;20114;-74
2021/11/19 02:59:48;;;;;;;22.40;11.55;;;12.00;97.70;;;;;;4993420;28;20061;-75
2021/11/19 03:02:18;;;;;;;24.85;11.80;;;11.90;97.70;;;;;;4991849;28;20018;-75
2021/11/19 03:04:48;;;;;;;28.27;11.77;;;12.00;97.80;;;;;;4991927;28;20141;-75
2021/11/19 03:07:15;;;;;;;22.20;10.60;;;12.00;97.80;;;;;;4993062;28;20030;-74
2021/11/19 03:09:47;;;;;;;24.95;11.40;;;12.00;97.80;;;;;;4993264;28;20022;-75
2021/11/19 03:12:16;;;;;;;26.90;12.27;;;12.00;97.80;;;;;;4991803;28;20459;-74
2021/11/19 03:14:43;;;;;;;22.05;11.57;;;12.00;97.80;;;;;;4993447;28;20026;-74
2021/11/19 03:17:10;;;;;;;27.02;12.52;;;12.00;97.80;;;;;;4992777;28;20104;-74
2021/11/19 03:19:37;;;;;;;27.65;13.13;;;12.00;97.80;;;;;;4993416;28;20069;-75
2021/11/19 03:22:05;;;;;;;30.02;12.50;;;12.00;97.90;;;;;;4993126;28;20133;-75
2021/11/19 03:24:31;;;;;;;26.00;12.50;;;12.00;97.90;;;;;;4993535;28;20041;-74
2021/11/19 03:26:57;;;;;;;22.48;11.65;;;12.00;97.90;;;;;;4993071;28;20042;-75
2021/11/19 03:29:23;;;;;;;29.33;13.38;;;12.00;98.00;;;;;;4992843;28;20030;-75
2021/11/19 03:31:50;;;;;;;26.27;12.80;;;12.00;98.00;;;;;;4993290;28;20065;-74
2021/11/19 03:34:18;;;;;;;29.45;13.60;;;11.90;98.00;;;;;;4992791;28;20037;-75
2021/11/19 03:36:47;;;;;;;26.27;11.40;;;12.00;98.10;;;;;;4991898;28;20031;-74
2021/11/19 03:39:14;;;;;;;27.65;12.90;;;12.00;98.10;;;;;;4992746;28;20053;-74
2021/11/19 03:41:42;;;;;;;27.20;12.20;;;12.00;98.10;;;;;;4993026;28;20022;-74
2021/11/19 03:44:32;;;;;;;22.58;12.13;;;12.00;98.10;;;;;;4992331;28;20526;-75
2021/11/19 03:47:11;;;;;;;29.85;13.00;;;12.00;98.10;;;;;;4991748;28;20054;-75
2021/11/19 03:49:37;;;;;;;25.98;12.15;;;12.00;98.10;;;;;;4993275;28;20027;-75
2021/11/19 03:52:15;;;;;;;23.40;10.93;;;12.00;98.10;;;;;;4991409;28;20093;-73
2021/11/19 03:54:42;;;;;;;26.52;13.23;;;12.00;98.10;;;;;;4992833;28;20053;-75
2021/11/19 03:57:10;;;;;;;29.40;14.30;;;12.00;98.10;;;;;;4992810;28;20058;-75
2021/11/19 03:59:36;;;;;;;29.55;15.55;;;12.00;98.10;;;;;;4992909;28;20491;-75
2021/11/19 04:02:02;;;;;;;36.08;15.52;;;12.00;98.10;;;;;;4993148;28;20035;-74
2021/11/19 04:04:31;;;;;;;28.92;13.35;;;12.00;98.10;;;;;;4990924;28;20042;-75
2021/11/19 04:06:59;;;;;;;29.70;14.50;;;12.00;98.10;;;;;;4992784;28;20510;-75
2021/11/19 04:09:26;;;;;;;27.58;12.10;;;12.00;98.10;;;;;;4991138;28;20022;-75
2021/11/19 04:11:52;;;;;;;37.88;15.70;;;12.00;98.10;;;;;;4992959;28;20037;-75
2021/11/19 04:14:18;;;;;;;31.27;14.63;;;12.00;98.10;;;;;;4992319;28;20018;-75
2021/11/19 04:16:46;;;;;;;24.77;11.52;;;12.00;98.10;;;;;;4992879;28;20109;-75
2021/11/19 04:19:14;;;;;;;32.35;13.95;;;12.00;98.20;;;;;;4992397;28;20022;-75
2021/11/19 04:21:43;;;;;;;26.95;13.75;;;12.00;98.20;;;;;;4992901;28;20018;-74
2021/11/19 04:24:11;;;;;;;27.20;14.35;;;12.00;98.20;;;;;;4991306;28;20022;-75
2021/11/19 04:26:37;;;;;;;29.10;13.15;;;12.00;98.20;;;;;;4993448;28;20038;-75
2021/11/19 04:29:05;;;;;;;30.20;14.57;;;12.00;98.20;;;;;;4992814;28;20077;-75
2021/11/19 04:31:32;;;;;;;33.00;15.05;;;12.00;98.30;;;;;;4995231;28;20022;-75
2021/11/19 04:33:59;;;;;;;29.25;14.73;;;12.00;98.30;;;;;;5003682;28;20037;-75
2021/11/19 04:36:26;;;;;;;30.40;13.82;;;12.00;98.30;;;;;;4995718;28;20037;-74
2021/11/19 04:38:52;;;;;;;30.73;14.30;;;12.00;98.30;;;;;;4994428;28;20046;-75
2021/11/19 04:41:18;;;;;;;28.30;14.32;;;12.00;98.40;;;;;;4995563;28;20022;-75
2021/11/19 04:43:44;;;;;;;35.03;15.68;;;12.00;98.30;;;;;;4996013;28;20526;-75
2021/11/19 04:46:11;;;;;;;26.23;10.40;;;12.00;98.30;;;;;;4995519;28;20022;-74
2021/11/19 04:48:38;;;;;;;29.33;14.27;;;12.00;98.30;;;;;;4995779;28;20109;-75
2021/11/19 04:51:27;;;;;;;29.02;14.13;;;12.10;98.30;;;;;;4995810;28;20026;-75
2021/11/19 04:53:54;;;;;;;26.48;13.52;;;12.10;98.40;;;;;;4994875;28;20037;-75
2021/11/19 04:56:20;;;;;;;24.67;11.18;;;12.10;98.30;;;;;;4995282;28;20026;-74
2021/11/19 04:58:47;;;;;;;23.52;12.07;;;12.10;98.30;;;;;;4994615;28;20018;-75
2021/11/19 05:01:19;;;;;;;27.30;13.15;;;12.10;98.30;;;;;;4994243;28;20018;-74
2021/11/19 05:03:45;;;;;;;31.48;15.52;;;12.10;98.30;;;;;;5027321;28;20113;-75
2021/11/19 05:06:12;;;;;;;30.55;14.27;;;12.10;98.30;;;;;;4995508;28;20117;-76
2021/11/19 05:08:38;;;;;;;29.60;13.85;;;12.20;98.30;;;;;;4995419;28;20030;-75
2021/11/19 05:11:06;;;;;;;25.95;11.95;;;12.20;98.30;;;;;;5014775;28;20030;-75
2021/11/19 05:13:33;;;;;;;29.45;13.60;;;12.10;98.30;;;;;;5014827;28;20022;-75
2021/11/19 05:16:03;;;;;;;25.80;12.68;;;12.10;98.30;;;;;;4995277;28;20022;-75
2021/11/19 05:18:30;;;;;;;27.80;13.73;;;12.10;98.30;;;;;;4975298;28;20586;-76
2021/11/19 05:20:56;;;;;;;22.60;12.13;;;12.10;98.30;;;;;;4974773;28;20019;-75
2021/11/19 05:23:24;;;;;;;34.08;13.63;;;12.10;98.30;;;;;;4975442;28;20030;-75
2021/11/19 05:25:50;;;;;;;26.60;13.98;;;12.20;98.40;;;;;;4975748;28;20035;-76
2021/11/19 05:28:20;;;;;;;24.73;12.32;;;12.10;98.40;;;;;;4974746;28;20113;-75
2021/11/19 05:30:46;;;;;;;25.75;13.07;;;12.20;98.40;;;;;;4975557;28;20093;-75
2021/11/19 05:33:15;;;;;;;28.63;14.20;;;12.10;98.40;;;;;;4975375;28;20027;-75
2021/11/19 05:35:42;;;;;;;26.17;11.98;;;12.10;98.40;;;;;;4974363;28;20113;-76
2021/11/19 05:38:09;;;;;;;23.73;12.18;;;12.10;98.50;;;;;;4975639;28;20033;-75
2021/11/19 05:40:35;;;;;;;30.90;14.20;;;12.10;98.50;;;;;;4975066;28;20027;-75
2021/11/19 05:43:01;;;;;;;28.27;14.60;;;12.00;98.50;;;;;;4975348;28;20445;-76
2021/11/19 05:45:30;;;;;;;27.40;12.82;;;12.10;98.60;;;;;;4974854;28;20395;-75
2021/11/19 05:47:56;;;;;;;24.77;13.05;;;12.00;98.60;;;;;;4975017;28;20041;-76
2021/11/19 05:50:24;;;;;;;27.80;12.50;;;12.00;98.60;;;;;;4973490;28;20026;-76
2021/11/19 05:52:52;;;;;;;33.72;14.73;;;12.00;98.70;;;;;;4975308;28;20098;-75
2021/11/19 05:55:23;;;;;;;28.23;12.68;;;12.00;99.00;;;;;;4974892;28;20027;-75
2021/11/19 05:57:48;;;;;;;28.67;12.95;;;12.00;98.80;;;;;;4974191;28;20035;-75
2021/11/19 06:00:22;;;;;;;27.92;12.95;;;12.00;98.80;;;;;;4974774;28;20033;-75
2021/11/19 06:02:48;;;;;;;27.88;14.27;;;12.00;98.80;;;;;;4993465;28;20034;-75
2021/11/19 06:05:15;;;;;;;27.75;14.23;;;12.00;98.80;;;;;;4993907;28;20046;-75
2021/11/19 06:07:41;;;;;;;26.02;13.73;;;12.00;98.80;;;;;;4994536;28;20037;-76
2021/11/19 06:10:08;;;;;;;33.95;15.18;;;12.00;98.80;;;;;;4993411;28;20109;-76
2021/11/19 06:12:42;;;;;;;28.55;13.38;;;12.00;98.80;;;;;;4992747;28;20097;-76
2021/11/19 06:15:19;;;;;;;29.63;13.50;;;12.10;98.90;;;;;;4994543;28;20034;-76
2021/11/19 06:17:50;;;;;;;28.67;12.82;;;12.00;98.80;;;;;;4994561;28;20037;-75
2021/11/19 06:20:30;;;;;;;34.28;15.25;;;12.10;98.80;;;;;;4994032;28;20026;-75
2021/11/19 06:23:02;;;;;;;25.92;12.40;;;12.10;98.80;;;;;;4991229;28;20026;-76
2021/11/19 06:25:30;;;;;;;38.65;15.50;;;12.00;98.80;;;;;;4990506;28;20022;-77
2021/11/19 06:28:01;;;;;;;35.63;14.88;;;12.10;98.90;;;;;;4992152;28;20041;-77
2021/11/19 06:30:28;;;;;;;28.63;14.13;;;12.10;98.90;;;;;;4991767;28;20030;-77
2021/11/19 06:32:54;;;;;;;26.45;14.77;;;12.10;98.90;;;;;;5023498;28;20030;-77
2021/11/19 06:35:20;;;;;;;27.83;13.45;;;12.10;99.00;;;;;;5006036;28;20033;-77
2021/11/19 06:37:47;;;;;;;28.17;13.63;;;12.10;98.90;;;;;;4990565;28;20027;-76
2021/11/19 06:40:17;;;;;;;29.80;15.13;;;12.10;98.90;;;;;;5006756;28;20065;-76
2021/11/19 06:42:45;;;;;;;32.10;13.65;;;12.10;99.00;;;;;;4992083;28;20054;-76
2021/11/19 06:45:11;;;;;;;31.90;13.88;;;12.10;99.00;;;;;;4990354;28;20049;-75
2021/11/19 06:47:37;;;;;;;26.20;12.65;;;12.10;99.00;;;;;;4990732;28;20046;-76
2021/11/19 06:50:04;;;;;;;30.55;14.07;;;12.10;99.00;;;;;;4991705;28;20077;-75
2021/11/19 06:52:30;;;;;;;25.85;13.25;;;12.20;99.00;;;;;;4990986;28;20033;-73
2021/11/19 06:54:56;;;;;;;25.23;11.48;;;12.20;98.90;;;;;;4992481;28;20383;-75
2021/11/19 06:57:22;;;;;;;31.88;14.35;;;12.20;98.90;;;;;;5008139;28;20455;-74
2021/11/19 06:59:48;;;;;;;30.23;14.45;;;12.20;98.90;;;;;;4993243;28;20034;-75
2021/11/19 07:02:14;;;;;;;29.98;13.93;;;12.20;98.90;;;;;;4993201;28;20018;-74
2021/11/19 07:04:40;;;;;;;32.63;13.27;;;12.20;98.90;;;;;;4992774;28;20399;-74
2021/11/19 07:07:07;;;;;;;28.92;12.52;;;12.20;98.90;;;;;;4993764;28;20038;-75
2021/11/19 07:09:34;;;;;;;33.92;14.98;;;12.20;98.90;;;;;;4991767;28;20423;-74
2021/11/19 07:12:00;;;;;;;30.38;14.32;;;12.20;99.00;;;;;;4993415;28;20031;-74
2021/11/19 07:14:27;;;;;;;24.95;11.73;;;12.20;99.00;;;;;;4992734;28;20382;-74
2021/11/19 07:16:53;;;;;;;29.52;14.18;;;12.20;99.00;;;;;;4993344;28;20042;-74
2021/11/19 07:19:20;;;;;;;33.28;14.00;;;12.20;98.90;;;;;;4993093;28;20094;-74
2021/11/19 07:21:46;;;;;;;25.73;11.65;;;12.30;99.00;;;;;;4991967;28;20089;-73
2021/11/19 07:24:12;;;;;;;24.23;12.63;;;12.20;99.00;;;;;;4993184;28;20471;-72
2021/11/19 07:26:38;;;;;;;28.35;13.70;;;12.30;99.00;;;;;;4992111;28;20317;-74
2021/11/19 07:29:05;;;;;;;26.85;12.10;;;12.30;98.90;;;;;;4992906;28;20533;-76
2021/11/19 07:31:31;;;;;;;24.10;13.13;;;12.30;98.90;;;;;;4991920;28;20382;-76
2021/11/19 07:33:57;;;;;;;26.70;13.13;;;12.40;98.90;;;;;;4991752;28;20026;-74
2021/11/19 07:36:23;;;;;;;29.02;13.18;;;12.40;98.80;;;;;;4992380;28;20033;-73
2021/11/19 07:38:50;;;;;;;26.40;13.13;;;12.40;98.80;;;;;;4992969;28;20041;-74
2021/11/19 07:41:19;;;;;;;26.48;12.30;;;12.40;99.00;;;;;;4993058;28;20061;-74
2021/11/19 07:43:45;;;;;;;27.65;12.18;;;12.40;98.80;;;;;;4993068;28;20446;-74
2021/11/19 07:46:13;;;;;;;25.10;12.88;;;12.40;98.80;;;;;;4992910;28;20034;-74
2021/11/19 07:48:41;;;;;;;22.30;11.77;;;12.40;98.90;;;;;;4991231;28;20362;-74
2021/11/19 07:51:11;;;;;;;27.58;13.23;;;12.40;98.90;;;;;;4992895;28;20033;-74
2021/11/19 07:53:37;;;;;;;27.38;12.50;;;12.40;98.90;;;;;;4992222;28;20382;-74
2021/11/19 07:56:05;;;;;;;28.40;12.73;;;12.40;98.90;;;;;;4992569;28;20452;-74
2021/11/19 07:58:31;;;;;;;28.42;14.18;;;12.40;98.90;;;;;;4992300;28;20022;-74
2021/11/19 08:00:59;;;;;;;28.35;13.63;;;12.40;98.90;;;;;;4992867;28;20096;-74
2021/11/19 08:03:26;;;;;;;27.80;12.73;;;12.40;98.90;;;;;;4992319;28;20058;-75
2021/11/19 08:05:55;;;;;;;24.70;12.23;;;12.40;98.90;;;;;;4995280;28;20050;-74
2021/11/19 08:08:22;;;;;;;22.90;11.57;;;12.40;98.90;;;;;;4996569;28;20378;-75
2021/11/19 08:10:49;;;;;;;23.48;11.35;;;12.40;98.80;;;;;;4996665;28;20034;-75
2021/11/19 08:13:15;;;;;;;26.08;13.07;;;12.50;98.80;;;;;;4996393;28;20458;-74
2021/11/19 08:15:41;;;;;;;23.10;11.60;;;12.50;98.90;;;;;;4995887;28;20026;-75
2021/11/19 08:18:29;;;;;;;28.63;11.88;;;12.40;98.90;;;;;;4995389;28;20143;-75
2021/11/19 08:20:56;;;;;;;27.98;12.25;;;12.40;98.90;;;;;;4996436;28;20023;-75
2021/11/19 08:23:34;;;;;;;30.27;13.35;;;12.40;98.90;;;;;;4995888;28;20026;-74
2021/11/19 08:26:04;;;;;;;30.83;13.13;;;12.50;98.90;;;;;;4996734;28;20026;-75
2021/11/19 08:28:33;;;;;;;24.67;11.70;;;12.50;98.90;;;;;;4996070;28;20030;-73
2021/11/19 08:31:00;;;;;;;26.85;12.15;;;12.50;98.80;;;;;;4996591;28;20041;-74
2021/11/19 08:33:26;;;;;;;23.13;10.93;;;12.60;98.80;;;;;;4994467;28;20029;-73
2021/11/19 08:35:52;;;;;;;24.65;10.10;;;12.60;98.80;;;;;;4996278;28;20027;-75
2021/11/19 08:38:21;;;;;;;22.70;11.63;;;12.60;98.80;;;;;;4994847;28;20117;-75
2021/11/19 08:40:47;;;;;;;21.48;11.52;;;12.60;98.90;;;;;;4995729;28;20113;-74
2021/11/19 08:43:17;;;;;;;23.75;11.63;;;12.60;98.80;;;;;;4996156;28;20026;-73
2021/11/19 08:45:44;;;;;;;27.17;12.38;;;12.60;98.80;;;;;;4995389;28;20045;-74
2021/11/19 08:48:10;;;;;;;24.27;11.77;;;12.60;98.80;;;;;;4996049;28;20031;-74
2021/11/19 08:50:39;;;;;;;24.27;10.82;;;12.60;98.80;;;;;;4995719;28;20113;-74
2021/11/19 08:53:08;;;;;;;21.98;11.82;;;12.60;98.80;;;;;;4996059;28;20019;-74
2021/11/19 08:55:37;;;;;;;21.95;11.05;;;12.60;98.80;;;;;;4995208;28;20383;-74
2021/11/19 08:58:03;;;;;;;26.10;13.15;;;12.60;98.80;;;;;;4996198;28;20038;-74
2021/11/19 09:00:35;;;;;;;27.23;11.55;;;12.60;98.90;;;;;;4994177;28;20135;-74
2021/11/19 09:03:06;;;;;;;25.65;11.65;;;12.60;98.90;;;;;;4995837;28;20037;-74
2021/11/19 09:05:34;;;;;;;23.60;11.10;;;12.60;98.90;;;;;;4994584;28;20478;-74
2021/11/19 09:07:59;;;;;;;22.35;10.23;;;12.60;98.80;;;;;;4994471;28;20031;-74
2021/11/19 09:10:25;;;;;;;23.98;10.77;;;12.70;98.80;;;;;;4994029;28;20455;-74
2021/11/19 09:12:51;;;;;;;20.00;11.00;;;12.70;98.80;;;;;;4994817;28;20030;-74
2021/11/19 09:15:20;;;;;;;20.67;10.48;;;12.80;98.80;;;;;;4994034;28;20102;-74
2021/11/19 09:17:54;;;;;;;23.02;11.93;;;12.70;98.80;;;;;;4994032;28;20022;-74
2021/11/19 09:20:38;;;;;;;25.02;11.40;;;12.70;98.80;;;;;;4994403;28;20132;-74
2021/11/19 09:23:12;;;;;;;21.27;11.10;;;12.80;98.80;;;;;;4994478;28;20022;-74
2021/11/19 09:25:39;;;;;;;19.77;10.60;;;12.80;98.80;;;;;;4993834;28;20073;-74
2021/11/19 09:28:08;;;;;;;25.35;10.48;;;12.80;98.80;;;;;;4992796;28;20038;-74
2021/11/19 09:30:38;;;;;;;25.77;11.40;;;12.80;98.70;;;;;;4993847;28;20533;-73
2021/11/19 09:33:07;;;;;;;22.23;10.95;;;12.80;98.70;;;;;;4994211;28;20030;-74
2021/11/19 09:35:34;;;;;;;21.90;11.88;;;12.90;98.70;;;;;;4993686;28;20019;-74
2021/11/19 09:38:01;;;;;;;23.27;10.60;;;12.90;98.70;;;;;;4994100;28;20031;-74
2021/11/19 09:40:43;;;;;;;22.70;12.15;;;12.90;98.70;;;;;;4994125;28;20073;-74
2021/11/19 09:43:29;;;;;;;19.33;9.63;;;12.90;98.70;;;;;;4994167;28;20489;-74
2021/11/19 09:46:27;;;;;;;21.00;10.20;;;13.00;98.70;;;;;;4992824;28;20018;-74
2021/11/19 09:48:57;;;;;;;20.00;10.40;;;13.00;98.60;;;;;;4993780;28;20514;-74
2021/11/19 09:51:59;;;;;;;21.83;10.20;;;13.00;98.60;;;;;;4993875;28;20026;-74
2021/11/19 09:54:28;;;;;;;17.38;9.18;;;13.10;98.60;;;;;;4993777;28;20107;-74
2021/11/19 09:57:00;;;;;;;13.20;7.30;;;13.10;98.50;;;;;;4992435;28;20030;-73
2021/11/19 09:59:46;;;;;;;18.83;9.88;;;13.20;98.50;;;;;;4993889;28;20034;-74
2021/11/19 10:02:23;;;;;;;19.23;9.70;;;13.20;98.40;;;;;;4993820;28;20490;-74
2021/11/19 10:05:19;;;;;;;17.50;8.45;;;13.30;98.40;;;;;;4954498;28;1128206;-74
2021/11/19 10:07:58;;;;;;;18.83;9.57;;;13.30;98.30;;;;;;4994114;28;20076;-74
2021/11/19 10:10:51;;;;;;;16.92;9.52;;;13.40;98.30;;;;;;4993022;28;20023;-74
2021/11/19 10:13:27;;;;;;;19.55;8.75;;;13.40;98.30;;;;;;4994555;28;20358;-74
2021/11/19 10:16:02;;;;;;;23.63;10.90;;;13.40;98.30;;;;;;4994187;28;20026;-74
2021/11/19 10:18:51;;;;;;;18.38;9.27;;;13.40;98.30;;;;;;4994456;28;20501;-74
2021/11/19 10:21:25;;;;;;;15.73;8.63;;;13.40;98.30;;;;;;4993835;28;20035;-74
2021/11/19 10:23:56;;;;;;;12.43;6.47;;;13.40;98.30;;;;;;4992540;28;20481;-74
2021/11/19 10:26:35;;;;;;;16.02;9.15;;;13.50;98.30;;;;;;4994210;28;20023;-74
2021/11/19 10:29:05;;;;;;;15.18;8.00;;;13.50;98.30;;;;;;4992405;28;20054;-75
2021/11/19 10:31:30;;;;;;;15.98;8.90;;;13.50;98.20;;;;;;4994506;28;20030;-74
2021/11/19 10:34:31;;;;;;;16.17;9.05;;;13.60;98.20;;;;;;4994145;28;20101;-74
2021/11/19 10:37:23;;;;;;;16.75;7.43;;;13.60;98.20;;;;;;4992868;28;20466;-74
2021/11/19 10:40:14;;;;;;;16.75;7.72;;;13.70;98.10;;;;;;4993667;28;20487;-74
2021/11/19 10:43:11;;;;;;;14.43;6.82;;;13.70;98.10;;;;;;4992292;28;20100;-74
2021/11/19 10:46:37;;;;;;;12.80;7.05;;;13.80;98.00;;;;;;4993684;28;20046;-73
2021/11/19 10:49:18;;;;;;;14.25;7.13;;;13.80;98.00;;;;;;4993923;28;20031;-74
2021/11/19 10:52:09;;;;;;;11.98;6.72;;;13.80;98.00;;;;;;4993462;28;20026;-73
2021/11/19 10:55:02;;;;;;;12.82;7.20;;;13.80;98.00;;;;;;4991990;28;20445;-74
2021/11/19 10:58:32;;;;;;;12.25;6.53;;;13.80;98.00;;;;;;4993693;28;20036;-74
2021/11/19 11:00:58;;;;;;;10.77;6.72;;;13.80;98.00;;;;;;4981700;28;20042;-74
2021/11/19 11:03:39;;;;;;;10.82;6.00;;;13.80;98.00;;;;;;4993551;28;20105;-73
2021/11/19 11:06:11;;;;;;;16.75;7.53;;;13.90;98.00;;;;;;4993785;28;20050;-74
2021/11/19 11:08:42;;;;;;;11.20;6.38;;;13.90;97.90;;;;;;4992855;28;20026;-73
2021/11/19 11:11:30;;;;;;;15.48;7.88;;;13.80;98.00;;;;;;4993750;28;20093;-74
2021/11/19 11:13:55;;;;;;;11.93;5.88;;;13.80;98.00;;;;;;4993127;28;20467;-75
2021/11/19 11:16:23;;;;;;;15.20;7.50;;;13.90;98.00;;;;;;4993650;28;20045;-73
2021/11/19 11:18:57;;;;;;;12.07;6.85;;;13.90;97.90;;;;;;4992175;28;20037;-73
2021/11/19 11:21:54;;;;;;;9.43;5.43;;;14.00;97.90;;;;;;4992679;28;20076;-73
2021/11/19 11:24:29;;;;;;;14.30;7.07;;;14.00;97.80;;;;;;4991037;28;20371;-74
2021/11/19 11:27:19;;;;;;;9.77;5.35;;;14.00;97.80;;;;;;4992898;28;20089;-74
2021/11/19 11:29:55;;;;;;;10.70;6.10;;;13.90;97.80;;;;;;4991480;28;20041;-74
2021/11/19 11:32:59;;;;;;;13.73;7.32;;;13.90;97.80;;;;;;4991938;28;20142;-74
2021/11/19 11:35:45;;;;;;;11.30;6.47;;;13.90;97.90;;;;;;4991832;28;20156;-74
2021/11/19 11:38:16;;;;;;;14.57;6.97;;;13.80;97.80;;;;;;4993053;28;20030;-74
2021/11/19 11:40:48;;;;;;;;;;;13.80;97.80;;;;;;4993388;28;20505;-73
2021/11/19 11:43:53;;;;;;;13.50;6.78;;;13.70;97.80;;;;;;4993298;28;19933;-74
2021/11/19 11:46:30;;;;;;;13.80;7.10;;;13.70;97.70;;;;;;4989219;28;20461;-74
2021/11/19 11:49:16;;;;;;;10.55;5.97;;;13.80;97.70;;;;;;4991427;28;20165;-74
2021/11/19 11:51:55;;;;;;;16.42;7.45;;;13.90;97.60;;;;;;4991192;28;20022;-74
2021/11/19 11:54:53;;;;;;;15.07;7.72;;;13.90;97.60;;;;;;4992591;28;20027;-74
2021/11/19 11:57:26;;;;;;;14.18;7.18;;;14.00;97.50;;;;;;4992845;28;20156;-74
2021/11/19 12:00:22;;;;;;;15.80;7.90;;;14.10;97.40;;;;;;4992587;28;20141;-74
2021/11/19 12:03:16;;;;;;;12.13;7.28;;;14.10;97.20;;;;;;4992714;28;20034;-74
2021/11/19 12:05:45;;;;;;;14.45;7.72;;;14.30;97.00;;;;;;4991057;28;20070;-74
2021/11/19 12:08:47;;;;;;;13.93;7.35;;;14.40;96.90;;;;;;4992411;28;20022;-74
2021/11/19 12:11:52;;;;;;;10.38;6.53;;;14.50;96.70;;;;;;4992526;28;20030;-74
2021/11/19 12:14:28;;;;;;;11.65;7.60;;;14.40;96.70;;;;;;4992823;28;20026;-74
2021/11/19 12:17:14;;;;;;;10.60;6.68;;;14.30;96.80;;;;;;4991723;28;20038;-75
2021/11/19 12:19:54;;;;;;;10.80;6.18;;;14.20;96.90;;;;;;4992290;28;20467;-74
2021/11/19 12:22:35;;;;;;;9.38;5.68;;;14.10;96.90;;;;;;4992226;28;20026;-74
2021/11/19 12:25:26;;;;;;;10.73;6.18;;;14.10;97.00;;;;;;4992081;28;20022;-74
2021/11/19 12:27:58;;;;;;;10.55;6.30;;;14.00;97.00;;;;;;5023920;28;20060;-74
2021/11/19 12:30:42;;;;;;;11.00;6.13;;;14.00;97.00;;;;;;4992543;28;20533;-74
2021/11/19 12:33:16;;;;;;;12.35;6.40;;;13.90;96.90;;;;;;4992892;28;20057;-74
2021/11/19 12:36:05;;;;;;;11.88;6.50;;;13.90;96.90;;;;;;4992051;28;20023;-74
2021/11/19 12:38:36;;;;;;;9.98;5.85;;;13.90;96.90;;;;;;4992503;28;20085;-75
2021/11/19 12:41:05;;;;;;;8.73;5.57;;;13.90;97.00;;;;;;4992058;28;20080;-74
2021/11/19 12:43:37;;;;;;;9.40;5.53;;;13.80;96.90;;;;;;4992078;28;20428;-74
2021/11/19 12:46:10;;;;;;;10.02;6.25;;;13.90;96.90;;;;;;4992031;28;20030;-74
2021/11/19 12:49:03;;;;;;;11.98;5.97;;;13.90;96.80;;;;;;4992207;28;20030;-75
2021/11/19 12:51:41;;;;;;;9.50;5.50;;;13.90;96.80;;;;;;4994473;28;20053;-75
2021/11/19 12:54:35;;;;;;;7.90;5.45;;;13.90;96.80;;;;;;4994930;28;20390;-75
2021/11/19 12:57:25;;;;;;;8.55;4.50;;;13.90;96.80;;;;;;5027093;28;20035;-75